Time;durP1;ratioP1;P1;durP2;ratioP2;P2;SDS_P1;SDS_P2;PMS_P1;PMS_P2;Temp;Humidity;BMP_temperature;BMP_pressure;BME280_temperature;BME280_humidity;BME280_pressure;Samples;Min_cycle;Max_cycle;Signal;HPM_P1;HPM_P2
2022/08/14 00:00:45;;;;;;;3.70;3.40;;;;;;;;;;5043601;28;20201;-83
2022/08/14 00:03:25;;;;;;;4.77;3.87;;;14.40;99.90;;;;;;5041332;28;20178;-85
2022/08/14 00:05:51;;;;;;;4.30;3.90;;;;;;;;;;5041678;28;20182;-84
2022/08/14 00:08:17;;;;;;;5.47;4.00;;;;;;;;;;5041994;28;20182;-84
2022/08/14 00:10:44;;;;;;;6.60;4.20;;;;;;;;;;5041744;28;20218;-84
2022/08/14 00:13:10;;;;;;;7.37;3.83;;;;;;;;;;5040610;28;20640;-84
2022/08/14 00:15:39;;;;;;;3.83;3.50;;;14.20;99.90;;;;;;5042110;28;20201;-84
2022/08/14 00:18:08;;;;;;;4.60;3.33;;;14.20;99.90;;;;;;5041277;28;20200;-85
2022/08/14 00:20:38;;;;;;;4.13;3.53;;;14.20;99.90;;;;;;5040302;28;20331;-82
2022/08/14 00:23:06;;;;;;;4.43;3.47;;;14.10;99.90;;;;;;5041257;28;20204;-84
2022/08/14 00:25:32;;;;;;;4.30;3.90;;;;;;;;;;5042166;28;20178;-84
2022/08/14 00:27:58;;;;;;;5.87;3.90;;;;;;;;;;5041827;28;20206;-83
2022/08/14 00:30:24;;;;;;;4.27;3.70;;;;;;;;;;5041662;28;20694;-84
2022/08/14 00:32:50;;;;;;;4.00;3.60;;;;;;;;;;5041573;28;20202;-83
2022/08/14 00:35:16;;;;;;;4.47;3.93;;;;;;;;;;5041744;28;20220;-83
2022/08/14 00:37:44;;;;;;;4.20;3.63;;;13.90;99.90;;;;;;5043876;28;20650;-83
2022/08/14 00:40:16;;;;;;;4.00;3.60;;;13.80;99.90;;;;;;5041996;28;20190;-83
2022/08/14 00:42:43;;;;;;;4.23;3.83;;;13.80;99.90;;;;;;5042112;28;20261;-83
2022/08/14 00:45:11;;;;;;;4.50;3.30;;;13.70;99.90;;;;;;5043747;28;20189;-82
2022/08/14 00:47:37;;;;;;;4.63;3.90;;;;;;;;;;5043936;28;20182;-83
2022/08/14 00:50:06;;;;;;;4.60;3.70;;;13.70;99.90;;;;;;5039667;28;20212;-83
2022/08/14 00:52:32;;;;;;;5.80;3.97;;;;;;;;;;5041380;28;20660;-83
2022/08/14 00:54:58;;;;;;;5.17;3.37;;;;;;;;;;5039651;28;20560;-83
2022/08/14 00:57:30;;;;;;;7.33;3.70;;;13.70;99.90;;;;;;5040806;28;20179;-83
2022/08/14 00:59:56;;;;;;;5.33;3.70;;;;;;;;;;5040008;28;20201;-82
2022/08/14 01:02:23;;;;;;;6.80;3.53;;;;;;;;;;5038331;28;20187;-82
2022/08/14 01:04:53;;;;;;;3.73;3.43;;;13.70;99.90;;;;;;5046266;28;20240;-82
2022/08/14 01:07:20;;;;;;;4.57;3.30;;;13.70;99.90;;;;;;5052932;28;20201;-82
2022/08/14 01:10:00;;;;;;;3.70;3.40;;;13.60;99.90;;;;;;5048227;28;20218;-82
2022/08/14 01:12:27;;;;;;;7.50;3.77;;;13.90;99.90;;;;;;5038655;28;20273;-83
2022/08/14 01:14:54;;;;;;;3.70;3.40;;;13.70;99.90;;;;;;5039784;28;20304;-82
2022/08/14 01:17:21;;;;;;;4.87;3.53;;;13.70;99.90;;;;;;5041281;28;20185;-82
2022/08/14 01:22:32;;;;;;;4.43;3.70;;;13.80;99.90;;;;;;5036916;28;20217;-82
2022/08/14 01:24:58;;;;;;;4.57;3.70;;;;;;;;;;5041418;28;20213;-82
2022/08/14 01:27:25;;;;;;;4.37;3.23;;;;;;;;;;5057666;28;20192;-82
2022/08/14 01:29:54;;;;;;;5.07;3.50;;;13.50;99.90;;;;;;5055800;28;20209;-84
2022/08/14 01:32:21;;;;;;;6.30;4.47;;;13.40;99.90;;;;;;5038998;28;20183;-84
2022/08/14 01:34:54;;;;;;;7.27;4.13;;;13.40;99.90;;;;;;5041725;28;20218;-83
2022/08/14 01:37:24;;;;;;;4.30;3.90;;;13.40;99.90;;;;;;5042049;28;20591;-83
2022/08/14 01:39:53;;;;;;;7.80;3.80;;;;;;;;;;5043087;28;20278;-83
2022/08/14 01:42:20;;;;;;;4.33;3.93;;;;;;;;;;5044036;28;20174;-84
2022/08/14 01:44:51;;;;;;;4.50;3.90;;;;;;;;;;5043015;28;20237;-83
2022/08/14 01:47:17;;;;;;;5.23;3.80;;;13.30;99.90;;;;;;5040099;28;20167;-83
2022/08/14 01:49:43;;;;;;;5.07;4.20;;;;;;;;;;5042693;28;20212;-83
2022/08/14 01:52:11;;;;;;;6.33;3.63;;;;;;;;;;5037538;28;20221;-83
2022/08/14 01:54:37;;;;;;;5.63;3.80;;;;;;;;;;5037906;28;20288;-83
2022/08/14 01:57:03;;;;;;;4.47;3.93;;;13.20;99.90;;;;;;5037273;28;20185;-84
2022/08/14 01:59:32;;;;;;;4.07;3.67;;;13.20;99.90;;;;;;5037187;28;20178;-83
2022/08/14 02:02:02;;;;;;;5.57;3.50;;;13.10;99.90;;;;;;5038642;28;20170;-82
2022/08/14 02:04:33;;;;;;;5.83;3.80;;;13.20;99.90;;;;;;5037639;28;20186;-83
2022/08/14 02:07:01;;;;;;;4.33;3.77;;;;;;;;;;5039484;28;20178;-83
2022/08/14 02:09:29;;;;;;;4.40;3.80;;;;;;;;;;5036975;28;20644;-82
2022/08/14 02:11:55;;;;;;;4.20;3.73;;;;;;;;;;5037835;28;20292;-83
2022/08/14 02:14:22;;;;;;;4.43;4.03;;;;;;;;;;5039346;28;20262;-83
2022/08/14 02:16:52;;;;;;;7.90;3.93;;;13.20;99.90;;;;;;5038560;28;20177;-83
2022/08/14 02:19:27;;;;;;;4.60;4.20;;;13.10;99.90;;;;;;5039637;28;20212;-83
2022/08/14 02:21:55;;;;;;;5.07;4.03;;;13.20;99.90;;;;;;5038612;28;20185;-84
2022/08/14 02:24:23;;;;;;;6.70;4.03;;;13.10;99.90;;;;;;5040813;28;20173;-82
2022/08/14 02:26:50;;;;;;;4.40;4.00;;;13.20;99.90;;;;;;5050890;28;20170;-82
2022/08/14 02:29:22;;;;;;;4.10;3.70;;;13.20;99.90;;;;;;5049384;28;20220;-82
2022/08/14 02:31:50;;;;;;;4.53;4.13;;;13.30;99.90;;;;;;5039782;28;20225;-83
2022/08/14 02:34:17;;;;;;;4.80;4.30;;;13.20;99.90;;;;;;5039679;28;20497;-83
2022/08/14 02:36:44;;;;;;;5.20;3.63;;;13.10;99.90;;;;;;5038418;28;20174;-82
2022/08/14 02:39:11;;;;;;;4.03;3.63;;;13.00;99.90;;;;;;5038074;28;20170;-83
2022/08/14 02:41:38;;;;;;;4.40;4.00;;;13.20;99.90;;;;;;5038977;28;20221;-83
2022/08/14 02:44:05;;;;;;;5.00;4.43;;;13.00;99.90;;;;;;5039914;28;20193;-82
2022/08/14 02:46:32;;;;;;;4.27;3.87;;;12.90;99.90;;;;;;5038848;28;20174;-83
2022/08/14 02:48:58;;;;;;;4.40;4.00;;;;;;;;;;5039184;28;20174;-83
2022/08/14 02:51:25;;;;;;;4.67;3.50;;;13.00;99.90;;;;;;5040018;28;20195;-83
2022/08/14 02:53:53;;;;;;;4.63;4.10;;;;;;;;;;5042132;28;20253;-83
2022/08/14 02:56:19;;;;;;;5.43;4.13;;;13.00;99.90;;;;;;5041811;28;20594;-82
2022/08/14 02:58:48;;;;;;;6.60;4.27;;;13.00;99.90;;;;;;5041643;28;20257;-83
2022/08/14 03:01:17;;;;;;;5.53;4.53;;;12.90;99.90;;;;;;5039630;28;20277;-83
2022/08/14 03:03:43;;;;;;;4.90;4.40;;;12.90;99.90;;;;;;5040632;28;20182;-83
2022/08/14 03:06:11;;;;;;;4.90;4.40;;;12.90;99.90;;;;;;5041822;28;20185;-83
2022/08/14 03:08:39;;;;;;;5.23;4.07;;;12.80;99.90;;;;;;5039977;28;20689;-82
2022/08/14 03:11:08;;;;;;;7.13;4.13;;;12.80;99.90;;;;;;5040221;28;20698;-82
2022/08/14 03:13:36;;;;;;;5.17;4.50;;;12.80;99.90;;;;;;5039937;28;20285;-83
2022/08/14 03:16:06;;;;;;;4.40;4.00;;;12.80;99.90;;;;;;5042029;28;20244;-82
2022/08/14 03:18:33;;;;;;;5.83;4.33;;;;;;;;;;5041378;28;20182;-82
2022/08/14 03:21:01;;;;;;;8.77;4.27;;;12.80;99.90;;;;;;5039482;28;20198;-82
2022/08/14 03:23:33;;;;;;;4.37;3.97;;;;;;;;;;5039745;28;20170;-82
2022/08/14 03:25:59;;;;;;;5.93;4.50;;;12.60;99.90;;;;;;5037897;28;20218;-82
2022/08/14 03:28:28;;;;;;;4.67;4.13;;;12.80;99.90;;;;;;5037108;28;20178;-82
2022/08/14 03:30:54;;;;;;;6.10;4.20;;;12.60;99.90;;;;;;5036551;28;20604;-82
2022/08/14 03:33:21;;;;;;;5.80;5.20;;;12.60;99.90;;;;;;5043527;28;20190;-82
2022/08/14 03:35:47;;;;;;;4.80;4.20;;;;;;;;;;5058448;28;20186;-82
2022/08/14 03:38:17;;;;;;;5.13;4.63;;;;;;;;;;5060679;28;20186;-83
2022/08/14 03:40:44;;;;;;;5.20;4.70;;;12.50;99.90;;;;;;5042512;28;20221;-83
2022/08/14 03:43:10;;;;;;;5.00;4.50;;;12.50;99.90;;;;;;5042066;28;20205;-83
2022/08/14 03:45:38;;;;;;;7.23;4.63;;;12.50;99.90;;;;;;5042788;28;20179;-83
2022/08/14 03:48:14;;;;;;;5.00;4.50;;;12.50;99.90;;;;;;5043184;28;20265;-83
2022/08/14 03:50:40;;;;;;;6.73;5.20;;;;;;;;;;5043568;28;20194;-84
2022/08/14 03:53:06;;;;;;;5.60;5.00;;;;;;;;;;5043391;28;20252;-83
2022/08/14 03:55:32;;;;;;;5.30;4.80;;;;;;;;;;5044255;28;20220;-83
2022/08/14 03:57:58;;;;;;;6.70;5.63;;;;;;;;;;5044610;28;20171;-83
2022/08/14 04:00:24;;;;;;;7.03;4.97;;;;;;;;;;5044245;28;20205;-83
2022/08/14 04:02:50;;;;;;;5.57;4.63;;;;;;;;;;5044625;28;20175;-83
2022/08/14 04:05:17;;;;;;;7.53;4.53;;;;;;;;;;5043923;28;20538;-84
2022/08/14 04:07:43;;;;;;;5.03;4.20;;;;;;;;;;5046736;28;20828;-83
2022/08/14 04:10:09;;;;;;;4.90;4.40;;;;;;;;;;5040380;28;20220;-84
2022/08/14 04:12:36;;;;;;;4.70;4.30;;;;;;;;;;5042346;28;20185;-83
2022/08/14 04:15:02;;;;;;;5.00;4.50;;;12.10;99.90;;;;;;5043353;28;20206;-83
2022/08/14 04:17:28;;;;;;;4.53;4.13;;;;;;;;;;5043594;28;20250;-84
2022/08/14 04:19:54;;;;;;;4.90;4.10;;;;;;;;;;5044439;28;20567;-83
2022/08/14 04:22:21;;;;;;;4.40;3.87;;;;;;;;;;5044851;28;20252;-83
2022/08/14 04:24:47;;;;;;;6.50;4.80;;;;;;;;;;5042557;28;20182;-83
2022/08/14 04:27:14;;;;;;;4.60;4.20;;;;;;;;;;5043910;28;20209;-83
2022/08/14 04:29:41;;;;;;;4.23;3.53;;;12.10;99.90;;;;;;5045729;28;20242;-82
2022/08/14 04:32:09;;;;;;;4.27;3.87;;;12.10;99.90;;;;;;5043444;28;20184;-83
2022/08/14 04:34:40;;;;;;;4.37;3.83;;;12.10;99.90;;;;;;5043695;28;20255;-83
2022/08/14 04:45:23;;;;;;;5.50;4.07;;;12.20;99.90;;;;;;5041302;28;20193;-83
2022/08/14 04:50:34;;;;;;;4.60;3.77;;;12.00;99.90;;;;;;5041374;28;20689;-83
2022/08/14 04:53:03;;;;;;;4.40;3.80;;;12.10;99.90;;;;;;5039758;28;20264;-83
2022/08/14 04:55:29;;;;;;;4.73;3.70;;;12.10;99.90;;;;;;5040558;28;20198;-83
2022/08/14 04:57:55;;;;;;;4.47;3.80;;;12.30;99.90;;;;;;5039338;28;20174;-83
2022/08/14 05:00:21;;;;;;;3.97;3.67;;;12.50;99.90;;;;;;5039018;28;20225;-83
2022/08/14 05:02:48;;;;;;;4.23;3.83;;;;;;;;;;5039630;28;20178;-83
2022/08/14 05:05:15;;;;;;;4.17;3.77;;;;;;;;;;5038841;28;20264;-83
2022/08/14 05:07:41;;;;;;;3.60;3.30;;;;;;;;;;5038059;28;20193;-83
2022/08/14 05:10:07;;;;;;;7.30;3.60;;;;;;;;;;5038446;28;20224;-83
2022/08/14 05:12:33;;;;;;;3.93;3.43;;;;;;;;;;5038052;28;20232;-83
2022/08/14 05:14:59;;;;;;;3.83;3.47;;;;;;;;;;5040017;28;20214;-83
2022/08/14 05:17:27;;;;;;;4.97;3.50;;;;;;;;;;5039987;28;20201;-83
2022/08/14 05:19:53;;;;;;;4.87;3.27;;;;;;;;;;5040120;28;20558;-83
2022/08/14 05:22:20;;;;;;;5.90;3.90;;;;;;;;;;5037382;28;20178;-83
2022/08/14 05:24:48;;;;;;;4.00;3.70;;;13.00;99.90;;;;;;5039543;28;20178;-83
2022/08/14 05:27:14;;;;;;;3.80;3.00;;;13.20;99.90;;;;;;5037525;28;20186;-83
2022/08/14 05:29:43;;;;;;;4.40;3.37;;;;;;;;;;5039231;28;20186;-83
2022/08/14 05:32:09;;;;;;;3.97;3.47;;;;;;;;;;5041988;28;20174;-84
2022/08/14 05:34:36;;;;;;;7.57;3.00;;;;;;;;;;5043466;28;20206;-83
2022/08/14 05:37:02;;;;;;;3.23;2.93;;;13.20;99.90;;;;;;5046499;28;20273;-82
2022/08/14 05:39:28;;;;;;;3.67;3.10;;;;;;;;;;5041802;28;20269;-82
2022/08/14 05:41:55;;;;;;;4.23;3.10;;;13.40;99.90;;;;;;5040803;28;20174;-82
2022/08/14 05:44:21;;;;;;;5.97;3.20;;;;;;;;;;5054324;28;20166;-81
2022/08/14 05:46:47;;;;;;;6.43;3.30;;;14.00;99.90;;;;;;5059523;28;20190;-83
2022/08/14 05:49:14;;;;;;;3.30;2.90;;;;;;;;;;5048956;28;20182;-83
2022/08/14 05:51:40;;;;;;;4.90;2.80;;;14.20;99.90;;;;;;5039481;28;20202;-82
2022/08/14 05:54:06;;;;;;;3.50;2.93;;;14.20;99.90;;;;;;5039928;28;20578;-82
2022/08/14 05:56:32;;;;;;;4.57;2.90;;;14.10;99.90;;;;;;5041071;28;20214;-83
2022/08/14 05:58:58;;;;;;;11.63;3.67;;;14.10;99.90;;;;;;5039735;28;20179;-83
2022/08/14 06:01:24;;;;;;;4.03;2.70;;;14.60;99.90;;;;;;5040195;28;20237;-83
2022/08/14 06:03:50;;;;;;;3.33;2.90;;;;;;;;;;5041228;28;20683;-82
2022/08/14 06:06:17;;;;;;;2.50;2.30;;;14.60;99.90;;;;;;5040704;28;20189;-83
2022/08/14 06:08:43;;;;;;;3.00;2.70;;;14.60;99.90;;;;;;5039894;28;20209;-83
2022/08/14 06:11:09;;;;;;;4.67;2.50;;;14.90;99.90;;;;;;5041137;28;20210;-83
2022/08/14 06:13:38;;;;;;;2.63;2.20;;;15.20;99.90;;;;;;5041387;28;20174;-83
2022/08/14 06:16:05;;;;;;;5.13;2.40;;;15.10;99.90;;;;;;5041114;28;20246;-83
2022/08/14 06:18:31;;;;;;;3.77;2.40;;;15.20;99.90;;;;;;5046668;28;20242;-83
2022/08/14 06:20:57;;;;;;;4.73;2.93;;;;;;;;;;5039084;28;20226;-83
2022/08/14 06:23:22;;;;;;;2.90;2.60;;;15.60;99.90;;;;;;5039666;28;20616;-83
2022/08/14 06:25:48;;;;;;;3.37;2.57;;;;;;;;;;5040439;28;20305;-83
2022/08/14 06:28:18;;;;;;;3.10;2.80;;;15.90;99.90;;;;;;5038401;28;20188;-83
2022/08/14 06:30:44;;;;;;;3.03;2.73;;;15.90;99.90;;;;;;5039075;28;20285;-83
2022/08/14 06:33:10;;;;;;;2.73;2.53;;;;;;;;;;5039602;28;20205;-83
2022/08/14 06:35:36;;;;;;;6.87;2.70;;;16.00;99.90;;;;;;5044862;28;20667;-83
2022/08/14 06:38:02;;;;;;;3.97;2.53;;;16.00;99.90;;;;;;5042835;28;20185;-85
2022/08/14 06:40:33;;;;;;;3.10;2.50;;;16.10;99.90;;;;;;5044836;28;20205;-83
2022/08/14 06:43:03;;;;;;;3.33;2.40;;;16.20;99.90;;;;;;5044148;28;20188;-83
2022/08/14 06:45:30;;;;;;;2.50;2.30;;;16.20;99.90;;;;;;5044849;28;20182;-83
2022/08/14 06:47:56;;;;;;;2.57;2.37;;;16.30;99.90;;;;;;5043237;28;20236;-83
2022/08/14 06:50:23;;;;;;;2.50;2.30;;;16.50;99.90;;;;;;5045695;28;20206;-83
2022/08/14 06:52:49;;;;;;;3.17;2.60;;;16.50;99.90;;;;;;5045814;28;20229;-83
2022/08/14 06:55:17;;;;;;;3.20;2.30;;;16.60;99.90;;;;;;5045210;28;20241;-83
2022/08/14 06:57:48;;;;;;;5.10;2.50;;;16.80;99.90;;;;;;5048684;28;20221;-82
2022/08/14 07:00:27;;;;;;;2.77;2.30;;;16.90;99.90;;;;;;5051350;28;20206;-82
2022/08/14 07:05:55;;;;;;;2.47;2.27;;;17.10;99.90;;;;;;5044637;28;20536;-82
2022/08/14 07:08:25;;;;;;;2.53;2.33;;;17.20;99.90;;;;;;5044432;28;20543;-83
2022/08/14 07:10:53;;;;;;;2.80;2.60;;;17.20;99.90;;;;;;5045878;28;20213;-83
2022/08/14 07:13:21;;;;;;;3.97;2.33;;;17.40;99.90;;;;;;5042348;28;20270;-83
2022/08/14 07:15:49;;;;;;;2.63;2.43;;;17.50;99.90;;;;;;5041179;28;20229;-83
2022/08/14 07:18:35;;;;;;;3.63;2.97;;;17.60;99.90;;;;;;5042118;28;20269;-84
2022/08/14 07:21:04;;;;;;;3.33;2.30;;;17.70;99.90;;;;;;5042143;28;20204;-83
2022/08/14 07:23:30;;;;;;;3.33;2.47;;;17.70;99.90;;;;;;5043179;28;20292;-83
2022/08/14 07:25:57;;;;;;;2.50;2.20;;;17.80;99.90;;;;;;5042226;28;20737;-83
2022/08/14 07:28:30;;;;;;;5.00;2.60;;;17.90;99.90;;;;;;5042718;28;20188;-83
2022/08/14 07:30:57;;;;;;;2.73;2.53;;;18.10;99.90;;;;;;5040886;28;20210;-83
2022/08/14 07:33:25;;;;;;;2.47;2.27;;;18.30;99.90;;;;;;5042396;28;20183;-84
2022/08/14 07:35:52;;;;;;;2.20;2.00;;;18.30;99.90;;;;;;5041236;28;20211;-83
2022/08/14 07:38:19;;;;;;;2.60;2.40;;;18.40;99.90;;;;;;5039307;28;20272;-83
2022/08/14 07:40:46;;;;;;;2.57;2.37;;;18.70;99.90;;;;;;5040844;28;20198;-83
2022/08/14 07:43:12;;;;;;;3.07;2.50;;;18.80;99.90;;;;;;5043343;28;20244;-83
2022/08/14 07:45:39;;;;;;;3.07;2.50;;;18.80;99.90;;;;;;5042046;28;20186;-83
2022/08/14 07:48:05;;;;;;;3.40;2.20;;;19.00;99.90;;;;;;5041556;28;20189;-83
2022/08/14 07:50:32;;;;;;;6.23;2.90;;;19.50;99.90;;;;;;5041446;28;20203;-83
2022/08/14 07:52:58;;;;;;;3.97;2.23;;;19.60;99.90;;;;;;5040160;28;20208;-83
2022/08/14 07:55:25;;;;;;;2.80;2.37;;;19.90;99.90;;;;;;5052850;28;20287;-83
2022/08/14 07:57:51;;;;;;;3.27;2.70;;;20.10;99.90;;;;;;5057337;28;20196;-84
2022/08/14 08:00:22;;;;;;;5.23;2.50;;;20.50;99.90;;;;;;5040345;28;20193;-83
2022/08/14 08:02:51;;;;;;;4.93;2.50;;;20.60;99.90;;;;;;5041132;28;20173;-83
2022/08/14 08:05:18;;;;;;;2.63;2.43;;;20.70;99.90;;;;;;5040687;28;20175;-83
2022/08/14 08:07:45;;;;;;;2.40;2.13;;;20.80;99.90;;;;;;5040436;28;20262;-81
2022/08/14 08:10:30;;;;;;;2.60;2.10;;;21.10;99.90;;;;;;5040252;28;20210;-81
2022/08/14 08:13:09;;;;;;;2.60;2.40;;;21.20;99.90;;;;;;5040489;28;20182;-81
2022/08/14 08:15:58;;;;;;;2.50;2.10;;;21.50;99.90;;;;;;5041558;28;20198;-81
2022/08/14 08:18:25;;;;;;;3.77;2.20;;;21.70;99.90;;;;;;5040079;28;20182;-80
2022/08/14 08:20:53;;;;;;;2.70;2.03;;;22.00;99.90;;;;;;5039890;28;20193;-80
2022/08/14 08:23:21;;;;;;;2.50;2.30;;;22.20;99.90;;;;;;5041843;28;20167;-81
2022/08/14 08:25:49;;;;;;;6.60;2.10;;;22.40;99.90;;;;;;5040486;28;20545;-80
2022/08/14 08:28:20;;;;;;;1.90;1.80;;;22.60;99.90;;;;;;5041724;28;20530;-81
2022/08/14 08:30:50;;;;;;;3.13;2.10;;;22.80;99.90;;;;;;5041130;28;20210;-81
2022/08/14 08:33:17;;;;;;;2.60;2.40;;;23.10;99.90;;;;;;5041703;28;20241;-81
2022/08/14 08:35:43;;;;;;;2.03;1.87;;;23.20;99.90;;;;;;5041698;28;20206;-81
2022/08/14 08:38:11;;;;;;;2.20;2.00;;;23.30;99.90;;;;;;5040269;28;20172;-82
2022/08/14 08:40:41;;;;;;;3.57;1.80;;;23.30;99.90;;;;;;5040168;28;20190;-81
2022/08/14 08:43:29;;;;;;;2.03;1.83;;;23.40;99.90;;;;;;5038915;28;20176;-81
2022/08/14 08:46:02;;;;;;;2.47;1.73;;;23.60;99.90;;;;;;5042506;28;20178;-81
2022/08/14 08:48:30;;;;;;;1.90;1.70;;;23.90;99.90;;;;;;5040549;28;20183;-81
2022/08/14 08:51:01;;;;;;;1.70;1.60;;;24.20;99.90;;;;;;5040240;28;20197;-82
2022/08/14 08:53:35;;;;;;;1.73;1.63;;;24.50;99.90;;;;;;5039045;28;20197;-81
2022/08/14 08:56:02;;;;;;;3.80;1.57;;;24.70;99.90;;;;;;5039253;28;20206;-81
2022/08/14 08:58:28;;;;;;;1.90;1.73;;;24.90;99.90;;;;;;5039790;28;20586;-81
2022/08/14 09:00:56;;;;;;;2.37;2.00;;;25.10;99.90;;;;;;5044489;28;20211;-81
2022/08/14 09:03:24;;;;;;;1.60;1.50;;;25.30;99.90;;;;;;5052841;28;20189;-81
2022/08/14 09:05:53;;;;;;;1.47;1.37;;;25.40;99.90;;;;;;5049351;28;20261;-81
2022/08/14 09:08:20;;;;;;;1.77;1.40;;;25.50;99.90;;;;;;5038179;28;20177;-81
2022/08/14 09:10:46;;;;;;;2.03;1.30;;;25.80;99.90;;;;;;5037743;28;20230;-81
2022/08/14 09:13:14;;;;;;;2.90;1.70;;;26.00;99.90;;;;;;5037920;28;20664;-81
2022/08/14 09:15:41;;;;;;;1.67;1.57;;;26.10;99.90;;;;;;5040282;28;20195;-81
2022/08/14 09:18:08;;;;;;;2.00;1.33;;;26.20;99.90;;;;;;5038419;28;20212;-81
2022/08/14 09:20:36;;;;;;;2.97;1.57;;;26.40;99.90;;;;;;5038332;28;20204;-81
2022/08/14 09:23:03;;;;;;;2.13;1.40;;;26.60;99.90;;;;;;5037792;28;20724;-81
2022/08/14 09:25:29;;;;;;;1.63;1.53;;;26.70;99.90;;;;;;5037969;28;20725;-82
2022/08/14 09:27:55;;;;;;;1.60;1.50;;;26.90;98.20;;;;;;5039220;28;20209;-82
2022/08/14 09:30:21;;;;;;;4.23;1.50;;;27.00;99.90;;;;;;5039389;28;20213;-82
2022/08/14 09:33:05;;;;;;;1.70;1.40;;;27.20;99.70;;;;;;5039607;28;20179;-82
2022/08/14 09:35:46;;;;;;;2.37;1.60;;;27.50;99.90;;;;;;5039095;28;20205;-82
2022/08/14 09:38:36;;;;;;;1.40;1.30;;;27.70;96.40;;;;;;5037893;28;20197;-81
2022/08/14 09:41:43;;;;;;;3.90;1.40;;;27.70;98.30;;;;;;5039322;28;20194;-81
2022/08/14 09:44:18;;;;;;;2.27;1.50;;;27.80;96.70;;;;;;5031162;28;20189;-82
2022/08/14 09:46:54;;;;;;;3.03;1.27;;;28.00;97.80;;;;;;5039764;28;20170;-82
2022/08/14 09:49:34;;;;;;;2.47;1.30;;;28.20;97.40;;;;;;5039008;28;20175;-81
2022/08/14 09:52:07;;;;;;;2.20;1.40;;;28.40;95.60;;;;;;5039050;28;20178;-81
2022/08/14 09:54:44;;;;;;;1.83;1.03;;;28.80;98.70;;;;;;5038282;28;20240;-81
2022/08/14 09:57:26;;;;;;;2.47;1.30;;;29.20;97.30;;;;;;5038781;28;20180;-82
2022/08/14 09:59:52;;;;;;;3.00;1.40;;;29.30;95.40;;;;;;5021737;28;20194;-81
2022/08/14 10:02:29;;;;;;;2.30;1.20;;;29.30;95.50;;;;;;5039694;28;20202;-82
2022/08/14 10:05:05;;;;;;;1.50;1.30;;;29.40;91.90;;;;;;5047747;28;20180;-81
2022/08/14 10:07:36;;;;;;;1.40;1.30;;;29.40;91.40;;;;;;5047151;28;20185;-82
2022/08/14 10:10:04;;;;;;;1.37;1.27;;;29.50;93.00;;;;;;5037790;28;20621;-82
2022/08/14 10:12:47;;;;;;;1.83;1.30;;;29.40;91.00;;;;;;5037643;28;20208;-82
2022/08/14 10:15:22;;;;;;;1.67;1.30;;;29.40;90.10;;;;;;5037390;28;20202;-82
2022/08/14 10:17:48;;;;;;;1.63;1.53;;;29.40;87.30;;;;;;5037609;28;20169;-82
2022/08/14 10:20:21;;;;;;;1.80;1.70;;;29.50;91.90;;;;;;5037356;28;20204;-82
2022/08/14 10:22:48;;;;;;;2.20;1.73;;;29.60;92.50;;;;;;5037678;28;20183;-82
2022/08/14 10:25:16;;;;;;;1.80;1.70;;;29.80;94.10;;;;;;5038187;28;20242;-82
2022/08/14 10:27:48;;;;;;;2.07;1.50;;;29.90;86.90;;;;;;5037745;28;20179;-82
2022/08/14 10:30:16;;;;;;;1.60;1.40;;;29.90;87.30;;;;;;5039603;28;20193;-82
2022/08/14 10:32:44;;;;;;;3.17;1.40;;;30.20;91.50;;;;;;5039343;28;20178;-83
2022/08/14 10:35:11;;;;;;;4.67;1.77;;;30.20;90.90;;;;;;5038754;28;20190;-82
2022/08/14 10:37:40;;;;;;;2.33;1.60;;;30.40;89.60;;;;;;5039674;28;20190;-82
2022/08/14 10:40:06;;;;;;;2.43;1.90;;;30.70;85.20;;;;;;5046662;28;20209;-82
2022/08/14 10:42:40;;;;;;;1.97;1.60;;;31.00;78.20;;;;;;5045234;28;20256;-82
2022/08/14 10:45:30;;;;;;;3.60;2.17;;;31.00;80.30;;;;;;5039960;28;20213;-82
2022/08/14 10:47:56;;;;;;;2.40;1.40;;;31.10;86.70;;;;;;5038082;28;20271;-82
2022/08/14 10:50:37;;;;;;;1.63;1.53;;;31.20;84.60;;;;;;5038984;28;20198;-81
2022/08/14 10:53:04;;;;;;;1.70;1.60;;;31.20;83.60;;;;;;5038671;28;20170;-82
2022/08/14 10:55:38;;;;;;;1.70;1.57;;;31.10;82.30;;;;;;5038578;28;20176;-82
2022/08/14 10:58:10;;;;;;;1.60;1.50;;;31.10;80.00;;;;;;5037524;28;20165;-82
2022/08/14 11:00:38;;;;;;;1.53;1.43;;;31.20;78.20;;;;;;5038526;28;20673;-82
2022/08/14 11:03:12;;;;;;;1.13;1.00;;;31.30;87.30;;;;;;5037472;28;20190;-81
2022/08/14 11:05:42;;;;;;;1.40;1.30;;;31.50;74.70;;;;;;5037914;28;20205;-82
2022/08/14 11:08:09;;;;;;;2.43;1.50;;;31.60;84.30;;;;;;5037796;28;20182;-82
2022/08/14 11:10:56;;;;;;;1.50;1.20;;;31.50;75.60;;;;;;5037791;28;20257;-81
2022/08/14 11:13:27;;;;;;;1.60;1.50;;;31.50;77.10;;;;;;5036960;28;20299;-82
2022/08/14 11:15:59;;;;;;;1.20;1.10;;;31.80;82.70;;;;;;5038152;28;20600;-82
2022/08/14 11:18:27;;;;;;;1.90;1.30;;;32.10;79.70;;;;;;5037628;28;20210;-82
2022/08/14 11:20:54;;;;;;;1.70;1.50;;;32.30;72.90;;;;;;5037913;28;20199;-82
2022/08/14 11:23:26;;;;;;;2.03;1.53;;;32.50;82.60;;;;;;5042002;28;20182;-82
2022/08/14 11:25:52;;;;;;;1.63;1.47;;;32.60;74.10;;;;;;5040632;28;20681;-82
2022/08/14 11:28:22;;;;;;;1.43;1.33;;;32.90;74.90;;;;;;5042053;28;20171;-82
2022/08/14 11:30:49;;;;;;;1.73;1.50;;;33.10;72.00;;;;;;5041645;28;20189;-82
2022/08/14 11:33:15;;;;;;;1.60;1.50;;;33.20;73.10;;;;;;5041221;28;20172;-82
2022/08/14 11:35:46;;;;;;;2.43;1.50;;;33.20;71.60;;;;;;5041052;28;20181;-82
2022/08/14 11:38:12;;;;;;;1.80;1.30;;;33.10;70.30;;;;;;5041574;28;20179;-82
2022/08/14 11:40:38;;;;;;;1.40;1.30;;;33.00;69.20;;;;;;5041173;28;20199;-82
2022/08/14 11:43:06;;;;;;;2.40;1.37;;;33.10;77.90;;;;;;5039764;28;20276;-82
2022/08/14 11:45:38;;;;;;;1.30;1.20;;;33.00;66.90;;;;;;5040341;28;20301;-82
2022/08/14 11:48:17;;;;;;;1.30;1.20;;;32.90;71.40;;;;;;5041735;28;20209;-82
2022/08/14 11:50:43;;;;;;;2.43;1.70;;;33.30;71.20;;;;;;5041693;28;20200;-82
2022/08/14 11:53:32;;;;;;;1.37;1.27;;;33.40;71.60;;;;;;5040501;28;20210;-82
2022/08/14 11:56:03;;;;;;;2.30;1.37;;;33.50;72.30;;;;;;5041915;28;20267;-84
2022/08/14 11:58:33;;;;;;;3.07;1.57;;;33.70;66.70;;;;;;5041561;28;20178;-82
2022/08/14 12:01:02;;;;;;;1.70;1.57;;;33.90;66.60;;;;;;5042357;28;20209;-82
2022/08/14 12:03:38;;;;;;;2.90;1.40;;;33.90;62.60;;;;;;5043056;28;20174;-82
2022/08/14 12:06:06;;;;;;;2.53;1.20;;;33.90;59.90;;;;;;5039865;28;20278;-82
2022/08/14 12:08:34;;;;;;;1.90;1.60;;;34.00;63.60;;;;;;5039825;28;20179;-82
2022/08/14 12:11:00;;;;;;;1.77;1.50;;;34.10;61.10;;;;;;5045720;28;20687;-82
2022/08/14 12:13:31;;;;;;;1.30;1.20;;;34.10;64.10;;;;;;5052287;28;20233;-82
2022/08/14 12:15:59;;;;;;;1.70;1.40;;;33.90;65.10;;;;;;5048876;28;20193;-82
2022/08/14 12:18:48;;;;;;;1.70;1.60;;;33.70;58.20;;;;;;5049444;28;20655;-82
2022/08/14 12:21:20;;;;;;;1.60;1.50;;;33.90;61.80;;;;;;5049221;28;20208;-81
2022/08/14 12:24:00;;;;;;;1.60;1.50;;;34.10;57.50;;;;;;5043676;28;20209;-82
2022/08/14 12:26:26;;;;;;;1.80;1.50;;;34.10;59.40;;;;;;5039362;28;20217;-82
2022/08/14 12:29:08;;;;;;;1.97;1.77;;;34.10;64.10;;;;;;5038831;28;20235;-82
2022/08/14 12:31:35;;;;;;;1.70;1.60;;;33.60;69.90;;;;;;5038750;28;20209;-82
2022/08/14 12:34:04;;;;;;;1.43;1.33;;;33.80;59.90;;;;;;5040735;28;20218;-82
2022/08/14 12:36:29;;;;;;;1.53;1.40;;;33.70;61.30;;;;;;5040342;28;20485;-82
2022/08/14 12:39:00;;;;;;;4.77;1.80;;;33.70;56.30;;;;;;5040377;28;20194;-82
2022/08/14 12:41:34;;;;;;;2.07;1.87;;;33.50;58.40;;;;;;5039288;28;20224;-82
2022/08/14 12:44:02;;;;;;;2.47;1.43;;;33.70;60.70;;;;;;5040554;28;20174;-82
2022/08/14 12:46:36;;;;;;;3.73;1.60;;;33.90;61.70;;;;;;5040591;28;20600;-82
2022/08/14 12:49:10;;;;;;;2.93;1.70;;;34.30;62.40;;;;;;5040328;28;20232;-82
2022/08/14 12:51:36;;;;;;;1.77;1.57;;;34.50;59.90;;;;;;5040404;28;20196;-82
2022/08/14 12:54:13;;;;;;;1.60;1.50;;;34.60;55.10;;;;;;5039474;28;20180;-82
2022/08/14 12:56:39;;;;;;;1.73;1.53;;;34.10;61.50;;;;;;5040231;28;20269;-82
2022/08/14 12:59:05;;;;;;;2.93;1.80;;;33.90;58.10;;;;;;5040266;28;20225;-82
2022/08/14 13:01:32;;;;;;;1.47;1.30;;;34.10;65.50;;;;;;5040032;28;20202;-82
2022/08/14 13:04:15;;;;;;;1.37;1.27;;;34.10;66.30;;;;;;5040649;28;20181;-83
2022/08/14 13:06:43;;;;;;;8.33;3.07;;;34.40;59.10;;;;;;5039597;28;20211;-83
2022/08/14 13:09:11;;;;;;;1.67;1.57;;;34.50;61.40;;;;;;5040937;28;20175;-82
2022/08/14 13:11:43;;;;;;;1.93;1.20;;;34.60;55.50;;;;;;5039184;28;20583;-82
2022/08/14 13:14:12;;;;;;;1.50;1.40;;;34.30;54.40;;;;;;5039996;28;20179;-82
2022/08/14 13:16:40;;;;;;;2.17;1.50;;;34.20;50.80;;;;;;5040957;28;20244;-82
2022/08/14 13:19:14;;;;;;;1.70;1.60;;;34.20;60.50;;;;;;5038863;28;20186;-82
2022/08/14 13:21:42;;;;;;;2.50;1.70;;;34.50;54.70;;;;;;5039222;28;20204;-83
2022/08/14 13:24:11;;;;;;;1.63;1.53;;;34.60;56.10;;;;;;5040461;28;20213;-82
2022/08/14 13:26:52;;;;;;;1.83;1.50;;;34.80;52.60;;;;;;5038942;28;20206;-82
2022/08/14 13:29:20;;;;;;;1.50;1.40;;;34.90;55.30;;;;;;5040374;28;20197;-82
2022/08/14 13:31:50;;;;;;;2.43;1.30;;;34.60;55.50;;;;;;5038745;28;20251;-82
2022/08/14 13:34:18;;;;;;;2.70;1.60;;;34.60;52.10;;;;;;5039648;28;20192;-82